createdAt,value
2022-08-22T00:02:39.659Z,18.59
2022-08-22T00:02:48.773Z,21.24
2022-08-22T00:02:55.723Z,18.74
2022-08-22T00:03:10.471Z,18.70
2022-08-22T00:06:53.487Z,18.55
2022-08-22T00:11:03.864Z,18.58
2022-08-22T00:15:31.606Z,18.58
2022-08-22T00:19:49.971Z,18.59
2022-08-22T00:24:09.540Z,18.58
2022-08-22T00:28:18.816Z,18.57
2022-08-22T00:32:30.384Z,18.54
2022-08-22T00:36:40.523Z,18.52
2022-08-22T00:41:01.120Z,18.50
2022-08-22T00:45:35.942Z,18.51
2022-08-22T00:49:54.463Z,18.48
2022-08-22T00:54:06.821Z,18.43
2022-08-22T00:58:41.374Z,18.39
2022-08-22T01:03:36.090Z,18.37
2022-08-22T01:08:06.208Z,18.37
2022-08-22T01:12:40.591Z,18.35
2022-08-22T01:17:15.719Z,18.33
2022-08-22T01:21:47.791Z,18.29
2022-08-22T01:26:34.370Z,18.27
2022-08-22T01:31:02.116Z,18.25
2022-08-22T01:35:25.150Z,18.23
2022-08-22T01:39:50.155Z,18.24
2022-08-22T01:44:08.932Z,18.24
2022-08-22T01:48:18.046Z,18.24
2022-08-22T01:52:38.650Z,18.17
2022-08-22T01:56:45.485Z,18.14
2022-08-22T02:01:08.308Z,18.14
2022-08-22T02:05:23.211Z,18.09
2022-08-22T02:09:37.312Z,18.10
2022-08-22T02:13:55.650Z,18.10
2022-08-22T02:18:16.659Z,18.11
2022-08-22T02:22:30.720Z,18.11
2022-08-22T02:26:45.409Z,18.07
2022-08-22T02:30:57.072Z,18.07
2022-08-22T02:35:06.611Z,18.04
2022-08-22T02:39:21.405Z,18.01
2022-08-22T02:43:30.965Z,17.95
2022-08-22T02:47:40.253Z,17.95
2022-08-22T02:51:50.692Z,17.92
2022-08-22T02:56:00.316Z,17.94
2022-08-22T03:00:32.828Z,17.92
2022-08-22T03:04:53.479Z,17.92
2022-08-22T03:09:08.782Z,17.86
2022-08-22T03:13:15.178Z,17.86
2022-08-22T03:17:25.990Z,17.82
2022-08-22T03:21:35.398Z,17.79
2022-08-22T03:25:42.951Z,17.79
2022-08-22T03:29:51.183Z,17.70
2022-08-22T03:34:23.443Z,17.64
2022-08-22T03:38:39.599Z,17.61
2022-08-22T03:43:17.926Z,17.58
2022-08-22T03:47:38.935Z,17.56
2022-08-22T03:52:02.351Z,17.53
2022-08-22T03:56:32.712Z,17.49
2022-08-22T04:01:07.825Z,17.44
2022-08-22T04:05:40.650Z,17.43
2022-08-22T04:10:11.937Z,17.40
2022-08-22T04:14:49.408Z,17.39
2022-08-22T04:19:16.446Z,17.37
2022-08-22T04:23:45.448Z,17.37
2022-08-22T04:27:56.222Z,17.31
2022-08-22T04:32:14.584Z,17.30
2022-08-22T04:36:24.783Z,17.27
2022-08-22T04:40:34.834Z,17.22
2022-08-22T04:44:44.625Z,17.21
2022-08-22T04:48:54.512Z,17.19
2022-08-22T04:53:09.817Z,17.15
2022-08-22T04:57:34.491Z,17.17
2022-08-22T05:01:46.760Z,17.18
2022-08-22T05:05:53.048Z,17.16
2022-08-22T05:10:10.550Z,17.17
2022-08-22T05:14:20.023Z,17.17
2022-08-22T05:18:29.638Z,17.18
2022-08-22T05:22:37.886Z,17.14
2022-08-22T05:26:45.535Z,17.14
2022-08-22T05:30:49.990Z,17.17
2022-08-22T05:34:59.764Z,17.16
2022-08-22T05:39:06.813Z,17.14
2022-08-22T05:43:12.631Z,17.12
2022-08-22T05:47:23.583Z,17.11
2022-08-22T05:51:34.074Z,17.09
2022-08-22T05:55:48.181Z,17.12
2022-08-22T05:59:55.471Z,17.10
2022-08-22T06:04:06.951Z,17.11
2022-08-22T06:08:21.272Z,17.12
2022-08-22T06:12:33.390Z,17.11
2022-08-22T06:16:47.388Z,17.12
2022-08-22T06:20:56.406Z,17.11
2022-08-22T06:25:10.299Z,17.13
2022-08-22T06:29:18.339Z,17.15
2022-08-22T06:33:26.885Z,17.15
2022-08-22T06:37:34.318Z,17.13
2022-08-22T06:41:43.134Z,17.11
2022-08-22T06:45:51.319Z,17.11
2022-08-22T06:49:59.249Z,17.16
2022-08-22T06:54:06.221Z,17.19
2022-08-22T06:58:19.558Z,17.22
2022-08-22T07:02:29.370Z,17.23
2022-08-22T07:06:37.172Z,17.22
2022-08-22T07:10:42.562Z,17.22
2022-08-22T07:14:50.586Z,17.24
2022-08-22T07:18:54.286Z,17.22
2022-08-22T07:23:00.590Z,17.26
2022-08-22T07:27:20.839Z,17.31
2022-08-22T07:31:34.507Z,17.32
2022-08-22T07:35:42.838Z,17.38
2022-08-22T07:40:04.680Z,17.38
2022-08-22T07:44:17.425Z,17.39
2022-08-22T07:48:29.319Z,17.42
2022-08-22T07:52:41.429Z,17.41
2022-08-22T07:56:52.229Z,17.43
2022-08-22T08:00:56.925Z,17.43
2022-08-22T08:05:01.859Z,17.45
2022-08-22T08:09:05.486Z,17.47
2022-08-22T08:13:12.717Z,17.51
2022-08-22T08:17:21.630Z,17.51
2022-08-22T08:21:32.095Z,17.48
2022-08-22T08:25:53.824Z,17.51
2022-08-22T08:30:00.715Z,17.50
2022-08-22T08:34:07.749Z,17.51
2022-08-22T08:38:16.896Z,17.53
2022-08-22T08:43:05.336Z,17.54
2022-08-22T08:47:29.998Z,17.57
2022-08-22T08:51:57.733Z,17.57
2022-08-22T08:56:08.247Z,17.58
2022-08-22T09:00:18.920Z,17.59
2022-08-22T09:05:01.278Z,17.63
2022-08-22T09:09:17.383Z,17.64
2022-08-22T09:13:49.186Z,17.63
2022-08-22T09:18:28.843Z,17.65
2022-08-22T09:23:10.105Z,17.64
2022-08-22T09:27:18.451Z,17.66
2022-08-22T09:31:48.188Z,17.65
2022-08-22T09:36:05.319Z,17.64
2022-08-22T09:40:18.872Z,17.65
2022-08-22T09:44:39.587Z,17.69
2022-08-22T09:49:01.768Z,17.73
2022-08-22T09:53:14.908Z,17.77
2022-08-22T09:57:33.552Z,17.76
2022-08-22T10:01:44.327Z,17.79
2022-08-22T10:05:56.247Z,17.74
2022-08-22T10:10:11.842Z,17.80
2022-08-22T10:14:22.242Z,17.85
2022-08-22T10:18:37.736Z,17.84
2022-08-22T10:23:04.794Z,17.83
2022-08-22T10:27:15.796Z,17.79
2022-08-22T10:31:31.968Z,17.80
2022-08-22T10:35:41.000Z,17.83
2022-08-22T10:40:02.598Z,17.81
2022-08-22T10:44:18.062Z,17.78
2022-08-22T10:48:46.595Z,17.79
2022-08-22T10:53:12.815Z,17.83
2022-08-22T10:57:41.913Z,17.84
2022-08-22T11:01:54.614Z,17.90
2022-08-22T11:06:06.723Z,17.91
2022-08-22T11:10:24.304Z,17.88
2022-08-22T11:15:09.056Z,17.84
2022-08-22T11:19:44.682Z,17.84
2022-08-22T11:24:00.659Z,17.83
2022-08-22T11:28:51.942Z,17.84
2022-08-22T11:33:32.501Z,17.83
2022-08-22T11:38:01.432Z,17.85
2022-08-22T11:42:13.540Z,17.83
2022-08-22T11:46:22.834Z,17.84
2022-08-22T11:50:35.483Z,17.85
2022-08-22T11:54:56.503Z,17.90
2022-08-22T11:59:07.877Z,17.95
2022-08-22T12:03:55.696Z,18.01
2022-08-22T12:08:11.347Z,18.01
2022-08-22T12:12:26.662Z,18.10
2022-08-22T12:16:39.288Z,18.17
2022-08-22T12:20:59.142Z,18.23
2022-08-22T12:25:17.259Z,18.24
2022-08-22T12:29:44.734Z,18.27
2022-08-22T12:34:04.959Z,18.32
2022-08-22T12:38:28.937Z,18.43
2022-08-22T12:42:50.195Z,18.49
2022-08-22T12:47:12.590Z,18.50
2022-08-22T12:51:26.735Z,18.51
2022-08-22T12:55:55.543Z,18.51
2022-08-22T13:00:09.752Z,18.53
2022-08-22T13:04:33.240Z,18.55
2022-08-22T13:08:41.041Z,18.60
2022-08-22T13:12:48.485Z,18.66
2022-08-22T13:16:59.776Z,18.72
2022-08-22T13:21:11.537Z,18.78
2022-08-22T13:25:25.865Z,18.89
2022-08-22T13:29:42.593Z,18.92
2022-08-22T13:33:48.070Z,18.99
2022-08-22T13:37:59.782Z,19.03
2022-08-22T13:42:07.614Z,19.04
2022-08-22T13:46:25.255Z,19.06
2022-08-22T13:50:53.099Z,19.07
2022-08-22T13:55:03.437Z,19.03
2022-08-22T13:59:40.410Z,19.07
2022-08-22T14:03:49.162Z,19.11
2022-08-22T14:08:04.831Z,19.09
2022-08-22T14:12:23.295Z,19.12
2022-08-22T14:16:29.753Z,19.16
2022-08-22T14:20:33.770Z,19.11
2022-08-22T14:24:45.642Z,19.07
2022-08-22T14:28:50.857Z,19.03
2022-08-22T14:32:58.782Z,19.04
2022-08-22T14:37:07.890Z,18.98
2022-08-22T14:41:22.300Z,18.95
2022-08-22T14:45:33.064Z,18.98
2022-08-22T14:49:50.881Z,18.96
2022-08-22T14:54:13.921Z,18.96
2022-08-22T14:58:27.624Z,18.91
2022-08-22T15:02:34.127Z,18.93
2022-08-22T15:06:39.263Z,18.95
2022-08-22T15:11:07.296Z,18.94
2022-08-22T15:15:30.383Z,18.93
2022-08-22T15:19:41.008Z,18.90
2022-08-22T15:23:46.731Z,18.86
2022-08-22T15:27:56.618Z,18.85
2022-08-22T15:32:03.572Z,18.81
2022-08-22T15:36:16.258Z,18.76
2022-08-22T15:40:32.541Z,18.70
2022-08-22T15:44:40.658Z,18.73
2022-08-22T15:48:58.608Z,18.72
2022-08-22T15:53:19.732Z,18.73
2022-08-22T15:57:26.606Z,18.72
2022-08-22T16:01:42.671Z,18.71
2022-08-22T16:05:55.826Z,18.71
2022-08-22T16:10:04.506Z,18.72
2022-08-22T16:14:22.819Z,18.75
2022-08-22T16:19:02.990Z,18.74
2022-08-22T16:23:09.935Z,18.72
2022-08-22T16:27:20.425Z,18.68
2022-08-22T16:31:31.369Z,18.66
2022-08-22T16:36:26.079Z,18.65
2022-08-22T16:40:29.323Z,18.64
2022-08-22T16:44:43.193Z,18.62
2022-08-22T16:48:46.800Z,18.60
2022-08-22T16:53:16.623Z,18.64
2022-08-22T16:57:23.617Z,18.61
2022-08-22T17:01:43.284Z,18.59
2022-08-22T17:06:00.991Z,18.58
2022-08-22T17:10:45.329Z,18.56
2022-08-22T17:14:57.822Z,18.49
2022-08-22T17:19:14.700Z,18.46
2022-08-22T17:23:29.442Z,18.40
2022-08-22T17:27:38.580Z,18.39
2022-08-22T17:31:51.247Z,18.33
2022-08-22T17:36:26.356Z,18.34
2022-08-22T17:40:42.556Z,18.28
2022-08-22T17:44:54.961Z,18.27
2022-08-22T17:49:13.965Z,18.27
2022-08-22T17:53:33.942Z,18.24
2022-08-22T17:57:41.372Z,18.22
2022-08-22T18:01:50.007Z,18.22
2022-08-22T18:06:09.271Z,18.20
2022-08-22T18:10:23.649Z,18.14
2022-08-22T18:14:34.245Z,18.09
2022-08-22T18:18:40.335Z,18.02
2022-08-22T18:22:49.894Z,18.02
2022-08-22T18:27:01.163Z,17.99
2022-08-22T18:31:08.671Z,17.97
2022-08-22T18:35:21.422Z,17.95
2022-08-22T18:39:30.895Z,17.93
2022-08-22T18:43:40.181Z,17.93
2022-08-22T18:47:43.422Z,17.96
2022-08-22T18:52:32.823Z,17.96
2022-08-22T18:56:49.819Z,17.92
2022-08-22T19:01:07.456Z,17.90
2022-08-22T19:05:28.333Z,17.87
2022-08-22T19:09:46.968Z,17.86
2022-08-22T19:14:25.527Z,17.88
2022-08-22T19:18:39.313Z,17.86
2022-08-22T19:22:43.554Z,17.85
2022-08-22T19:26:48.887Z,17.84
2022-08-22T19:30:53.654Z,17.84
2022-08-22T19:35:19.608Z,17.80
2022-08-22T19:39:50.772Z,17.79
2022-08-22T19:43:58.088Z,17.80
2022-08-22T19:48:13.151Z,17.77
2022-08-22T19:52:32.073Z,17.77
2022-08-22T19:56:51.848Z,17.78
2022-08-22T20:00:59.029Z,17.77
2022-08-22T20:05:14.512Z,17.76
2022-08-22T20:09:30.033Z,17.72
2022-08-22T20:13:35.315Z,17.72
2022-08-22T20:17:43.656Z,17.70
2022-08-22T20:22:00.141Z,17.71
2022-08-22T20:26:07.214Z,17.75
2022-08-22T20:30:15.543Z,17.71
2022-08-22T20:34:24.462Z,17.69
2022-08-22T20:38:33.400Z,17.70
2022-08-22T20:42:38.652Z,17.72
2022-08-22T20:46:55.047Z,17.70
2022-08-22T20:51:04.683Z,17.70
2022-08-22T20:55:14.189Z,17.70
2022-08-22T20:59:24.779Z,17.67
2022-08-22T21:03:38.010Z,17.70
2022-08-22T21:07:44.273Z,17.67
2022-08-22T21:11:50.993Z,17.69
2022-08-22T21:15:57.688Z,17.70
2022-08-22T21:20:17.028Z,17.69
2022-08-22T21:24:20.496Z,17.69
2022-08-22T21:28:32.596Z,17.67
2022-08-22T21:32:41.567Z,17.68
2022-08-22T21:36:44.990Z,17.67
2022-08-22T21:40:48.123Z,17.68
2022-08-22T21:44:57.659Z,17.69
2022-08-22T21:49:05.575Z,17.69
2022-08-22T21:53:14.087Z,17.69
2022-08-22T21:57:34.685Z,17.69
2022-08-22T22:01:38.054Z,17.65
2022-08-22T22:05:49.273Z,17.64
2022-08-22T22:09:54.660Z,17.63
2022-08-22T22:13:58.773Z,17.66
2022-08-22T22:18:02.285Z,17.65
2022-08-22T22:22:07.702Z,17.64
2022-08-22T22:26:12.227Z,17.62
2022-08-22T22:30:17.229Z,17.61
2022-08-22T22:34:20.672Z,17.62
2022-08-22T22:38:25.579Z,17.59
2022-08-22T22:42:28.887Z,17.57
2022-08-22T22:46:32.419Z,17.58
2022-08-22T22:50:40.505Z,17.59
2022-08-22T22:54:45.859Z,17.57
2022-08-22T22:58:58.950Z,17.57
2022-08-22T23:03:15.697Z,17.54
2022-08-22T23:07:19.639Z,17.55
2022-08-22T23:11:26.543Z,17.54
2022-08-22T23:15:29.785Z,17.53
2022-08-22T23:19:32.841Z,17.52
2022-08-22T23:23:35.923Z,17.56
2022-08-22T23:27:40.439Z,17.56
2022-08-22T23:31:49.194Z,17.55
2022-08-22T23:35:53.472Z,17.54
2022-08-22T23:40:01.337Z,17.54
2022-08-22T23:44:08.230Z,17.57
2022-08-22T23:48:16.490Z,17.58
2022-08-22T23:52:20.985Z,17.61
2022-08-22T23:56:28.550Z,17.60
